Time;durP1;ratioP1;P1;durP2;ratioP2;P2;SDS_P1;SDS_P2;PMS_P1;PMS_P2;Temp;Humidity;BMP_temperature;BMP_pressure;BME280_temperature;BME280_humidity;BME280_pressure;Samples;Min_cycle;Max_cycle;Signal;HPM_P1;HPM_P2
2023/08/02 00:02:08;;;;;;;5.40;2.40;;;17.00;99.90;;;;;;5016363;28;20475;-72
2023/08/02 00:04:34;;;;;;;2.57;1.73;;;17.00;99.90;;;;;;5000813;28;20235;-71
2023/08/02 00:07:01;;;;;;;3.30;2.03;;;17.00;99.90;;;;;;4998735;28;20225;-70
2023/08/02 00:09:27;;;;;;;4.80;2.40;;;17.00;99.90;;;;;;4999032;28;20216;-72
2023/08/02 00:11:53;;;;;;;2.40;2.20;;;17.00;99.90;;;;;;4999766;28;20552;-71
2023/08/02 00:14:18;;;;;;;3.43;2.27;;;17.00;99.90;;;;;;5000698;28;20247;-71
2023/08/02 00:16:44;;;;;;;3.40;2.37;;;17.00;99.90;;;;;;5003205;28;20220;-71
2023/08/02 00:19:10;;;;;;;2.07;1.90;;;17.00;99.90;;;;;;5001681;28;20252;-72
2023/08/02 00:21:35;;;;;;;3.10;2.40;;;17.10;99.90;;;;;;5002661;28;20237;-72
2023/08/02 00:24:01;;;;;;;6.23;2.50;;;17.00;99.90;;;;;;5016664;28;20231;-71
2023/08/02 00:26:28;;;;;;;2.97;2.23;;;17.00;99.90;;;;;;5001659;28;20688;-71
2023/08/02 00:28:53;;;;;;;3.83;2.10;;;17.00;99.90;;;;;;4999596;28;20773;-71
2023/08/02 00:31:19;;;;;;;3.27;2.63;;;17.00;99.90;;;;;;5017953;28;20459;-70
2023/08/02 00:33:45;;;;;;;7.87;3.07;;;17.00;99.90;;;;;;5000005;28;21301;-70
2023/08/02 00:36:10;;;;;;;2.70;2.40;;;17.00;99.90;;;;;;4999805;28;20224;-71
2023/08/02 00:38:36;;;;;;;3.50;2.40;;;17.00;99.90;;;;;;4996536;28;20499;-71
2023/08/02 00:41:04;;;;;;;2.33;2.13;;;17.00;99.90;;;;;;4997817;28;20242;-72
2023/08/02 00:43:36;;;;;;;3.30;2.60;;;17.00;99.90;;;;;;5000860;28;20584;-71
2023/08/02 00:46:02;;;;;;;5.53;2.67;;;17.00;99.90;;;;;;4999275;28;20566;-73
2023/08/02 00:48:28;;;;;;;2.50;2.30;;;17.00;99.90;;;;;;5017943;28;20431;-72
2023/08/02 00:50:54;;;;;;;6.30;2.73;;;17.00;99.90;;;;;;4984808;28;20663;-71
2023/08/02 00:53:21;;;;;;;2.30;2.10;;;17.00;99.90;;;;;;5001825;28;20228;-72
2023/08/02 00:55:49;;;;;;;5.13;1.80;;;17.00;99.90;;;;;;5016957;28;20602;-72
2023/08/02 00:58:14;;;;;;;4.37;2.90;;;17.00;99.90;;;;;;4996805;28;20556;-72
2023/08/02 01:00:40;;;;;;;4.70;2.70;;;17.00;99.90;;;;;;5001986;28;20480;-72
2023/08/02 01:03:07;;;;;;;3.93;2.30;;;17.00;99.90;;;;;;4998862;28;20228;-72
2023/08/02 01:05:39;;;;;;;2.13;1.93;;;17.00;99.90;;;;;;4999430;28;21430;-72
2023/08/02 01:08:07;;;;;;;2.60;2.40;;;17.00;99.90;;;;;;4998916;28;20284;-71
2023/08/02 01:10:49;;;;;;;2.53;2.13;;;17.00;99.90;;;;;;4984921;28;20552;-70
2023/08/02 01:13:16;;;;;;;2.43;2.17;;;17.00;99.90;;;;;;5015204;28;20975;-72
2023/08/02 01:15:44;;;;;;;5.40;2.37;;;17.10;99.90;;;;;;4998545;28;20554;-71
2023/08/02 01:18:10;;;;;;;4.80;2.27;;;17.00;99.90;;;;;;5001812;28;20588;-72
2023/08/02 01:20:36;;;;;;;2.37;2.17;;;17.00;99.90;;;;;;4983829;28;20475;-71
2023/08/02 01:23:01;;;;;;;2.57;2.37;;;17.00;99.90;;;;;;4998698;28;20478;-70
2023/08/02 01:25:31;;;;;;;6.40;4.00;;;17.00;99.90;;;;;;5014625;28;20261;-71
2023/08/02 01:28:09;;;;;;;3.70;2.70;;;17.00;99.90;;;;;;5017081;28;20873;-71
2023/08/02 01:30:38;;;;;;;3.00;2.03;;;17.00;99.90;;;;;;4999490;28;20480;-72
2023/08/02 01:33:05;;;;;;;2.50;2.17;;;16.90;99.90;;;;;;4998627;28;20463;-71
2023/08/02 01:35:32;;;;;;;2.40;1.70;;;16.90;99.90;;;;;;4999127;28;20489;-71
2023/08/02 01:37:58;;;;;;;2.83;2.30;;;16.90;99.90;;;;;;4998554;28;20468;-71
2023/08/02 01:40:24;;;;;;;3.50;2.20;;;16.90;99.90;;;;;;4997270;28;20673;-70
2023/08/02 01:42:50;;;;;;;3.93;2.10;;;17.00;99.90;;;;;;5017638;28;20967;-71
2023/08/02 01:45:15;;;;;;;3.20;2.60;;;16.90;99.90;;;;;;4998011;28;20274;-71
2023/08/02 01:47:41;;;;;;;3.20;2.37;;;16.90;99.90;;;;;;4999315;28;20253;-71
2023/08/02 01:50:07;;;;;;;4.13;2.50;;;16.90;99.90;;;;;;4997325;28;20228;-71
2023/08/02 01:52:32;;;;;;;2.60;2.10;;;17.00;99.90;;;;;;5015083;28;20228;-71
2023/08/02 01:54:58;;;;;;;3.97;2.03;;;17.00;99.90;;;;;;5001973;28;20252;-70
2023/08/02 01:57:24;;;;;;;4.63;1.90;;;17.00;99.90;;;;;;4997512;28;20228;-70
2023/08/02 01:59:49;;;;;;;3.03;2.50;;;16.90;99.90;;;;;;4999016;28;20243;-71
2023/08/02 02:02:16;;;;;;;3.03;2.60;;;16.90;99.90;;;;;;4996361;28;20275;-72
2023/08/02 02:04:42;;;;;;;2.30;2.10;;;17.00;99.90;;;;;;4999189;28;20227;-71
2023/08/02 02:07:08;;;;;;;6.13;2.27;;;17.00;99.90;;;;;;4998144;28;20455;-71
2023/08/02 02:09:34;;;;;;;3.70;2.70;;;17.00;99.90;;;;;;4979234;28;20460;-71
2023/08/02 02:12:03;;;;;;;4.17;2.10;;;16.90;99.90;;;;;;4978649;28;20541;-71
2023/08/02 02:14:29;;;;;;;2.20;2.10;;;16.90;99.90;;;;;;4979219;28;21123;-71
2023/08/02 02:16:54;;;;;;;4.50;1.80;;;16.90;99.90;;;;;;4996419;28;20582;-71
2023/08/02 02:19:20;;;;;;;3.20;2.20;;;16.80;99.90;;;;;;4996755;28;20797;-71
2023/08/02 02:21:46;;;;;;;2.33;2.13;;;16.80;99.90;;;;;;5000740;28;20229;-70
2023/08/02 02:24:12;;;;;;;4.03;2.37;;;16.80;99.90;;;;;;4993951;28;20494;-72
2023/08/02 02:26:38;;;;;;;4.90;2.20;;;16.90;99.90;;;;;;4999637;28;20226;-71
2023/08/02 02:29:03;;;;;;;6.80;2.33;;;16.90;99.90;;;;;;4980805;28;20220;-70
2023/08/02 02:31:29;;;;;;;1.73;1.63;;;17.00;99.90;;;;;;4999837;28;20220;-71
2023/08/02 02:33:54;;;;;;;2.40;2.20;;;17.00;99.90;;;;;;4982318;28;20281;-72
2023/08/02 02:36:20;;;;;;;5.63;2.40;;;17.00;99.90;;;;;;4995722;28;20698;-71
2023/08/02 02:38:46;;;;;;;2.77;2.30;;;17.00;99.90;;;;;;4998072;28;20835;-70
2023/08/02 02:41:11;;;;;;;3.40;2.37;;;17.00;99.90;;;;;;5014749;28;20251;-70
2023/08/02 02:43:37;;;;;;;3.47;2.80;;;17.10;99.90;;;;;;5002330;28;20238;-71
2023/08/02 02:46:03;;;;;;;5.23;2.60;;;17.10;99.90;;;;;;4983405;28;20255;-70
2023/08/02 02:48:29;;;;;;;4.50;2.10;;;17.10;99.90;;;;;;4999687;28;20344;-71
2023/08/02 02:50:54;;;;;;;7.17;2.37;;;17.20;99.90;;;;;;4999453;28;20479;-71
2023/08/02 02:53:22;;;;;;;3.23;2.10;;;17.20;99.90;;;;;;5016984;28;20229;-71
2023/08/02 02:55:48;;;;;;;2.23;2.03;;;17.20;99.90;;;;;;5000215;28;20216;-71
2023/08/02 02:58:14;;;;;;;3.47;2.33;;;17.20;99.90;;;;;;4996672;28;20492;-71
2023/08/02 03:00:39;;;;;;;3.80;2.30;;;17.20;99.90;;;;;;4998749;28;20723;-72
2023/08/02 03:03:05;;;;;;;2.60;2.10;;;17.30;99.90;;;;;;5013336;28;20221;-72
2023/08/02 03:05:31;;;;;;;4.23;2.67;;;17.30;99.90;;;;;;4980507;28;20326;-71
2023/08/02 03:07:56;;;;;;;3.70;2.37;;;17.20;99.90;;;;;;5015562;28;20661;-72
2023/08/02 03:10:22;;;;;;;3.10;2.20;;;17.20;99.90;;;;;;4997885;28;20225;-71
2023/08/02 03:12:47;;;;;;;5.30;1.73;;;17.30;99.90;;;;;;5016356;28;20280;-72
2023/08/02 03:15:13;;;;;;;4.40;2.07;;;17.30;99.90;;;;;;4992130;28;20225;-73
2023/08/02 03:17:39;;;;;;;2.53;1.97;;;17.30;99.90;;;;;;4998052;28;20225;-72
2023/08/02 03:20:06;;;;;;;2.40;2.07;;;17.30;99.90;;;;;;4997882;28;20319;-73
2023/08/02 03:22:32;;;;;;;3.90;2.10;;;17.30;99.90;;;;;;4998535;28;20217;-72
2023/08/02 03:24:58;;;;;;;7.33;2.37;;;17.20;99.90;;;;;;4998647;28;20472;-72
2023/08/02 03:27:24;;;;;;;2.87;2.37;;;17.20;99.90;;;;;;4999747;28;20478;-73
2023/08/02 03:29:50;;;;;;;2.70;2.27;;;17.20;99.90;;;;;;5015492;28;20259;-71
2023/08/02 03:32:15;;;;;;;3.90;1.93;;;17.30;99.90;;;;;;4999353;28;20220;-73
2023/08/02 03:34:41;;;;;;;4.00;2.17;;;17.30;99.90;;;;;;4999267;28;20686;-72
2023/08/02 03:37:07;;;;;;;4.20;2.10;;;17.30;99.90;;;;;;4998885;28;20225;-73
2023/08/02 03:39:32;;;;;;;2.97;2.20;;;17.30;99.90;;;;;;4997879;28;20244;-72
2023/08/02 03:41:58;;;;;;;3.87;2.43;;;17.30;99.90;;;;;;5015249;28;20228;-73
2023/08/02 03:44:23;;;;;;;2.50;2.30;;;17.30;99.90;;;;;;5000344;28;21843;-72
2023/08/02 03:46:49;;;;;;;2.30;1.67;;;17.30;99.90;;;;;;5003521;28;20217;-71
2023/08/02 03:49:15;;;;;;;2.60;2.00;;;17.30;99.90;;;;;;5001391;28;20809;-73
2023/08/02 03:51:40;;;;;;;2.20;2.00;;;17.40;99.90;;;;;;5002246;28;20297;-72
2023/08/02 03:54:07;;;;;;;2.30;2.10;;;17.40;99.90;;;;;;5019025;28;20217;-72
2023/08/02 03:56:32;;;;;;;2.60;2.07;;;17.40;99.90;;;;;;5001893;28;20224;-72
2023/08/02 03:58:58;;;;;;;2.43;1.87;;;17.40;99.90;;;;;;5005356;28;20502;-72
2023/08/02 04:01:24;;;;;;;3.00;2.27;;;17.30;99.90;;;;;;5002591;28;20247;-72
2023/08/02 04:03:49;;;;;;;2.90;2.20;;;17.30;99.90;;;;;;5002048;28;20240;-72
2023/08/02 04:06:15;;;;;;;2.70;2.10;;;17.30;99.90;;;;;;5002306;28;20229;-73
2023/08/02 04:08:41;;;;;;;10.20;2.90;;;17.40;99.90;;;;;;5003550;28;20296;-73
2023/08/02 04:11:06;;;;;;;4.43;2.50;;;17.40;99.90;;;;;;5020249;28;20343;-72
2023/08/02 04:13:33;;;;;;;2.80;2.17;;;17.40;99.90;;;;;;5005281;28;20229;-72
2023/08/02 04:15:58;;;;;;;2.43;2.17;;;17.40;99.90;;;;;;5003852;28;21708;-72
2023/08/02 04:18:24;;;;;;;2.70;1.60;;;17.40;99.90;;;;;;5004761;28;20499;-72
2023/08/02 04:20:49;;;;;;;2.20;2.00;;;17.40;99.90;;;;;;5020173;28;20603;-73
2023/08/02 04:23:15;;;;;;;3.83;2.17;;;17.40;99.90;;;;;;5003680;28;20256;-72
2023/08/02 04:25:41;;;;;;;2.30;1.93;;;17.40;99.90;;;;;;5001883;28;20233;-73
2023/08/02 04:28:07;;;;;;;4.20;2.40;;;17.40;99.90;;;;;;5004834;28;20225;-72
2023/08/02 04:30:32;;;;;;;3.17;1.90;;;17.40;99.90;;;;;;5005756;28;20224;-72
2023/08/02 04:32:58;;;;;;;3.67;2.07;;;17.40;99.90;;;;;;5004500;28;20271;-72
2023/08/02 04:35:24;;;;;;;2.70;2.20;;;17.40;99.90;;;;;;5003311;28;20378;-73
2023/08/02 04:37:49;;;;;;;2.40;2.20;;;17.40;99.90;;;;;;5005603;28;20309;-72
2023/08/02 04:40:15;;;;;;;3.80;2.43;;;17.40;99.90;;;;;;5004941;28;20230;-73
2023/08/02 04:42:41;;;;;;;2.33;1.80;;;17.40;99.90;;;;;;5019991;28;20217;-72
2023/08/02 04:45:08;;;;;;;2.20;2.00;;;17.40;99.90;;;;;;5002386;28;20678;-72
2023/08/02 04:47:33;;;;;;;3.00;2.27;;;17.40;99.90;;;;;;5000460;28;20756;-72
2023/08/02 04:50:01;;;;;;;2.20;1.83;;;17.40;99.90;;;;;;5018158;28;20463;-72
2023/08/02 04:52:26;;;;;;;5.13;2.97;;;17.40;99.90;;;;;;5003355;28;20220;-72
2023/08/02 04:54:52;;;;;;;2.70;2.10;;;17.40;99.90;;;;;;5003901;28;20541;-72
2023/08/02 04:57:18;;;;;;;5.23;2.40;;;17.40;99.90;;;;;;5002692;28;20225;-72
2023/08/02 04:59:43;;;;;;;2.40;2.20;;;17.40;99.90;;;;;;5004137;28;20310;-73
2023/08/02 05:02:09;;;;;;;4.27;2.67;;;17.50;99.90;;;;;;5000178;28;20703;-72
2023/08/02 05:04:35;;;;;;;2.70;1.90;;;17.50;99.90;;;;;;5004571;28;20823;-72
2023/08/02 05:07:00;;;;;;;2.33;2.10;;;17.50;99.90;;;;;;5002109;28;20217;-72
2023/08/02 05:09:26;;;;;;;3.70;2.27;;;17.50;99.90;;;;;;5000726;28;20302;-72
2023/08/02 05:11:51;;;;;;;2.33;2.13;;;17.50;99.90;;;;;;5001605;28;20331;-72
2023/08/02 05:14:18;;;;;;;3.20;2.90;;;17.50;99.90;;;;;;5001107;28;20408;-72
2023/08/02 05:16:44;;;;;;;4.53;2.40;;;17.40;99.90;;;;;;5002019;28;20228;-72
2023/08/02 05:19:10;;;;;;;2.90;2.30;;;17.50;99.90;;;;;;5001637;28;20471;-72
2023/08/02 05:21:35;;;;;;;3.40;2.37;;;17.50;99.90;;;;;;5000593;28;20476;-73
2023/08/02 05:24:01;;;;;;;2.43;2.23;;;17.50;99.90;;;;;;5002842;28;20239;-72
2023/08/02 05:26:27;;;;;;;4.67;2.90;;;17.50;99.90;;;;;;4999580;28;20286;-72
2023/08/02 05:28:52;;;;;;;5.03;2.50;;;17.50;99.90;;;;;;5003215;28;20220;-72
2023/08/02 05:31:18;;;;;;;3.23;2.93;;;17.50;99.90;;;;;;5002454;28;20251;-71
2023/08/02 05:33:44;;;;;;;3.90;2.87;;;17.50;99.90;;;;;;5002614;28;20231;-72
2023/08/02 05:36:12;;;;;;;2.83;2.30;;;17.50;99.90;;;;;;5002535;28;20221;-72
2023/08/02 05:38:38;;;;;;;3.40;2.97;;;17.50;99.90;;;;;;5002062;28;20807;-72
2023/08/02 05:41:04;;;;;;;2.70;1.87;;;17.50;99.90;;;;;;5018430;28;20483;-72
2023/08/02 05:43:30;;;;;;;2.80;2.20;;;17.50;99.90;;;;;;5001547;28;20292;-72
2023/08/02 05:45:56;;;;;;;2.50;2.30;;;17.50;99.90;;;;;;5001015;28;20237;-72
2023/08/02 05:48:23;;;;;;;3.00;2.70;;;17.50;99.90;;;;;;4986842;28;20463;-72
2023/08/02 05:50:48;;;;;;;3.60;2.73;;;17.50;99.90;;;;;;4999980;28;20993;-71
2023/08/02 05:53:14;;;;;;;2.27;1.93;;;17.50;99.90;;;;;;5002621;28;20528;-73
2023/08/02 05:55:40;;;;;;;3.50;2.40;;;17.50;99.90;;;;;;5001889;28;20232;-73
2023/08/02 05:58:06;;;;;;;2.97;2.67;;;17.40;99.90;;;;;;5002739;28;20225;-72
2023/08/02 06:00:31;;;;;;;2.83;2.60;;;17.40;99.90;;;;;;4999913;28;20576;-72
2023/08/02 06:02:57;;;;;;;6.20;2.20;;;17.40;99.90;;;;;;5002358;28;20239;-72
2023/08/02 06:05:23;;;;;;;2.93;2.20;;;17.50;99.90;;;;;;5002083;28;20305;-72
2023/08/02 06:07:48;;;;;;;3.50;2.17;;;17.50;99.90;;;;;;5002825;28;20242;-72
2023/08/02 06:10:14;;;;;;;2.67;2.20;;;17.40;99.90;;;;;;4999766;28;20224;-72
2023/08/02 06:12:40;;;;;;;4.47;3.00;;;17.30;99.90;;;;;;5017835;28;20667;-73
2023/08/02 06:15:06;;;;;;;3.00;2.30;;;17.30;99.90;;;;;;4999335;28;20803;-73
2023/08/02 06:17:32;;;;;;;3.47;2.17;;;17.40;99.90;;;;;;5001102;28;20792;-73
2023/08/02 06:19:58;;;;;;;3.17;2.70;;;17.40;99.90;;;;;;5001404;28;20463;-73
2023/08/02 06:22:24;;;;;;;2.70;2.50;;;17.40;99.90;;;;;;4998478;28;20220;-73
2023/08/02 06:24:50;;;;;;;3.17;2.50;;;17.40;99.90;;;;;;4998521;28;20582;-73
2023/08/02 06:27:15;;;;;;;6.17;2.17;;;17.40;99.90;;;;;;5000580;28;20313;-73
2023/08/02 06:29:41;;;;;;;6.63;2.60;;;17.40;99.90;;;;;;4998789;28;20362;-73
2023/08/02 06:32:07;;;;;;;6.10;2.60;;;17.40;99.90;;;;;;4983046;28;20982;-72
2023/08/02 06:34:32;;;;;;;3.10;2.60;;;17.40;99.90;;;;;;4999801;28;20315;-73
2023/08/02 06:36:58;;;;;;;3.47;2.37;;;17.40;99.90;;;;;;4999104;28;20251;-73
2023/08/02 06:39:24;;;;;;;3.50;2.53;;;17.40;99.90;;;;;;4993817;28;20236;-73
2023/08/02 06:41:49;;;;;;;2.43;2.13;;;17.40;99.90;;;;;;4999906;28;20233;-73
2023/08/02 06:44:18;;;;;;;3.60;2.67;;;17.30;99.90;;;;;;4998112;28;20255;-73
2023/08/02 06:46:43;;;;;;;3.90;2.70;;;17.30;99.90;;;;;;5015666;28;21063;-73
2023/08/02 06:49:09;;;;;;;3.03;2.30;;;17.30;99.90;;;;;;4993327;28;20472;-73
2023/08/02 06:51:35;;;;;;;3.93;2.20;;;17.30;99.90;;;;;;4999589;28;20229;-73
2023/08/02 06:54:00;;;;;;;2.20;1.90;;;17.30;99.90;;;;;;5002892;28;20306;-73
2023/08/02 06:56:26;;;;;;;3.20;2.90;;;17.20;99.90;;;;;;4999330;28;21082;-73
2023/08/02 06:58:52;;;;;;;2.77;2.10;;;17.30;99.90;;;;;;4997372;28;20220;-73
2023/08/02 07:01:22;;;;;;;2.70;2.30;;;17.30;99.90;;;;;;4982294;28;20480;-73
2023/08/02 07:03:49;;;;;;;3.63;2.27;;;17.30;99.90;;;;;;5000436;28;20299;-73
2023/08/02 07:06:17;;;;;;;3.17;2.30;;;17.30;99.90;;;;;;5000515;28;21007;-73
2023/08/02 07:08:43;;;;;;;2.10;2.00;;;17.30;99.90;;;;;;5012542;28;20634;-73
2023/08/02 07:11:09;;;;;;;2.93;2.63;;;17.30;99.90;;;;;;4999991;28;20483;-73
2023/08/02 07:13:36;;;;;;;2.10;1.93;;;17.40;99.90;;;;;;5000360;28;20236;-72
2023/08/02 07:16:02;;;;;;;3.20;2.40;;;17.30;99.90;;;;;;4983297;28;20464;-73
2023/08/02 07:18:28;;;;;;;2.20;2.00;;;17.30;99.90;;;;;;4999766;28;20538;-73
2023/08/02 07:20:54;;;;;;;3.10;2.20;;;17.30;99.90;;;;;;5002738;28;20487;-73
2023/08/02 07:23:20;;;;;;;3.87;2.57;;;17.30;99.90;;;;;;5001179;28;21027;-73
2023/08/02 07:25:45;;;;;;;2.87;2.60;;;17.30;99.90;;;;;;5004306;28;20224;-73
2023/08/02 07:28:11;;;;;;;3.80;2.60;;;17.30;99.90;;;;;;5002752;28;20486;-73
2023/08/02 07:30:37;;;;;;;4.60;2.60;;;17.30;99.90;;;;;;5000044;28;20225;-73
2023/08/02 07:33:02;;;;;;;3.67;2.60;;;17.30;99.90;;;;;;5005730;28;20227;-73
2023/08/02 07:35:28;;;;;;;2.97;2.27;;;17.30;99.90;;;;;;5004662;28;20259;-73
2023/08/02 07:37:54;;;;;;;4.30;2.57;;;17.40;99.90;;;;;;5003128;28;20227;-73
2023/08/02 07:40:19;;;;;;;2.07;1.97;;;17.30;99.90;;;;;;4981769;28;20232;-73
2023/08/02 07:42:45;;;;;;;2.50;2.30;;;17.30;99.90;;;;;;5003378;28;20238;-73
2023/08/02 07:45:12;;;;;;;3.77;2.37;;;17.30;99.90;;;;;;5002040;28;20221;-73
2023/08/02 07:47:38;;;;;;;3.00;2.00;;;17.40;99.90;;;;;;5000751;28;20220;-72
2023/08/02 07:50:05;;;;;;;2.87;2.10;;;17.40;99.90;;;;;;5012679;28;20572;-73
2023/08/02 07:52:31;;;;;;;2.20;2.10;;;17.40;99.90;;;;;;5001869;28;20459;-73
2023/08/02 07:54:57;;;;;;;2.67;1.87;;;17.40;99.90;;;;;;5002706;28;20541;-73
2023/08/02 07:57:25;;;;;;;1.90;1.80;;;17.40;99.90;;;;;;4983346;28;20467;-73
2023/08/02 07:59:52;;;;;;;2.50;2.30;;;17.40;99.90;;;;;;4995414;28;20220;-73
2023/08/02 08:02:18;;;;;;;2.83;2.20;;;17.40;99.90;;;;;;5000662;28;20467;-74
2023/08/02 08:04:44;;;;;;;1.97;1.87;;;17.40;99.90;;;;;;5000577;28;20474;-73
2023/08/02 08:07:09;;;;;;;1.70;1.60;;;17.50;99.90;;;;;;5001352;28;20459;-73
2023/08/02 08:09:35;;;;;;;2.87;1.93;;;17.40;99.90;;;;;;4994052;28;20217;-74
2023/08/02 08:12:05;;;;;;;3.20;1.90;;;17.50;99.90;;;;;;5018170;28;20770;-74
2023/08/02 08:14:32;;;;;;;1.80;1.70;;;17.50;99.90;;;;;;4990333;28;20455;-73
2023/08/02 08:16:59;;;;;;;1.80;1.70;;;17.60;99.90;;;;;;5003152;28;21004;-73
2023/08/02 08:19:26;;;;;;;1.70;1.60;;;17.50;99.90;;;;;;4998394;28;20622;-73
2023/08/02 08:21:51;;;;;;;2.13;2.03;;;17.50;99.90;;;;;;5003577;28;20466;-73
2023/08/02 08:24:17;;;;;;;2.70;2.10;;;17.60;99.90;;;;;;5001946;28;21087;-73
2023/08/02 08:26:43;;;;;;;1.80;1.70;;;17.60;99.90;;;;;;5005283;28;20224;-73
2023/08/02 08:29:09;;;;;;;2.27;2.07;;;17.50;99.90;;;;;;4999432;28;20591;-73
2023/08/02 08:31:35;;;;;;;2.33;2.23;;;17.50;99.90;;;;;;5003618;28;20314;-73
2023/08/02 08:34:01;;;;;;;1.90;1.80;;;17.50;99.90;;;;;;5020471;28;20228;-73
2023/08/02 08:36:29;;;;;;;2.27;2.17;;;17.60;99.90;;;;;;5020522;28;20491;-73
2023/08/02 08:38:55;;;;;;;2.00;1.80;;;17.60;99.90;;;;;;5020594;28;20545;-74
2023/08/02 08:41:21;;;;;;;2.20;2.00;;;17.70;99.90;;;;;;5004841;28;20469;-74
2023/08/02 08:43:47;;;;;;;1.90;1.70;;;17.60;99.90;;;;;;5002162;28;20464;-74
2023/08/02 08:46:14;;;;;;;6.13;2.00;;;17.60;99.90;;;;;;5000717;28;20495;-73
2023/08/02 08:48:40;;;;;;;1.73;1.63;;;17.60;99.90;;;;;;5002403;28;20247;-74
2023/08/02 08:51:08;;;;;;;3.63;1.97;;;17.60;99.90;;;;;;5004473;28;20474;-74
2023/08/02 08:53:36;;;;;;;1.57;1.47;;;17.60;99.90;;;;;;4986760;28;20475;-73
2023/08/02 08:56:04;;;;;;;2.23;1.80;;;17.60;99.90;;;;;;5004698;28;20483;-73
2023/08/02 08:58:32;;;;;;;1.77;1.63;;;17.60;99.90;;;;;;5004814;28;21190;-74
2023/08/02 09:00:58;;;;;;;3.30;1.70;;;17.70;99.90;;;;;;5001849;28;21111;-74
2023/08/02 09:03:25;;;;;;;1.97;1.87;;;17.70;99.90;;;;;;5003614;28;20532;-74
2023/08/02 09:05:52;;;;;;;2.10;1.90;;;17.60;99.90;;;;;;5003897;28;20488;-72
2023/08/02 09:08:17;;;;;;;2.53;1.50;;;17.60;99.90;;;;;;5002909;28;20471;-74
2023/08/02 09:10:43;;;;;;;1.80;1.70;;;17.60;99.90;;;;;;5002443;28;20668;-73
2023/08/02 09:13:26;;;;;;;1.70;1.60;;;17.70;99.90;;;;;;5003063;28;20235;-73
2023/08/02 09:16:08;;;;;;;2.13;1.90;;;17.70;99.90;;;;;;5006148;28;20301;-73
2023/08/02 09:18:36;;;;;;;2.00;1.90;;;17.70;99.90;;;;;;4985428;28;20585;-73
2023/08/02 09:21:02;;;;;;;1.70;1.60;;;17.70;99.90;;;;;;5020212;28;20474;-73
2023/08/02 09:23:28;;;;;;;1.70;1.60;;;17.70;99.90;;;;;;5018729;28;20471;-73
2023/08/02 09:26:13;;;;;;;1.90;1.80;;;17.80;99.90;;;;;;5003789;28;20458;-73
2023/08/02 09:28:39;;;;;;;1.40;1.40;;;17.80;99.90;;;;;;5001530;28;20286;-73
2023/08/02 09:31:16;;;;;;;1.53;1.43;;;17.80;99.90;;;;;;5011940;28;20471;-74
2023/08/02 09:33:53;;;;;;;1.90;1.67;;;17.80;99.90;;;;;;4994911;28;20230;-73
2023/08/02 09:36:37;;;;;;;1.50;1.40;;;17.90;99.90;;;;;;4991390;28;20471;-74
2023/08/02 09:39:10;;;;;;;1.70;1.40;;;17.90;99.90;;;;;;4996988;28;21148;-74
2023/08/02 09:41:36;;;;;;;1.60;1.50;;;17.90;99.90;;;;;;4996626;28;20482;-74
2023/08/02 09:44:02;;;;;;;1.63;1.53;;;17.90;99.90;;;;;;5015147;28;20485;-74
2023/08/02 09:46:35;;;;;;;2.13;1.80;;;18.00;99.90;;;;;;4995984;28;20220;-74
2023/08/02 09:49:15;;;;;;;1.50;1.40;;;18.00;99.90;;;;;;5014154;28;20223;-73
2023/08/02 09:51:43;;;;;;;1.53;1.30;;;18.00;99.90;;;;;;4997431;28;20454;-73
2023/08/02 09:54:10;;;;;;;0.93;0.93;;;18.10;99.90;;;;;;5014821;28;20470;-74
2023/08/02 09:56:38;;;;;;;1.33;0.90;;;18.10;99.90;;;;;;5012778;28;20458;-73
2023/08/02 09:59:05;;;;;;;1.27;1.20;;;18.10;99.90;;;;;;4995290;28;20463;-72
2023/08/02 10:01:32;;;;;;;1.07;0.90;;;18.10;99.90;;;;;;5011656;28;20968;-74
2023/08/02 10:04:02;;;;;;;1.03;0.93;;;18.20;99.90;;;;;;5015353;28;20497;-73
2023/08/02 10:06:44;;;;;;;1.37;0.80;;;18.20;99.90;;;;;;5010231;28;20844;-73
2023/08/02 10:09:14;;;;;;;0.83;0.80;;;18.20;99.90;;;;;;4993492;28;20462;-74
2023/08/02 10:12:05;;;;;;;0.60;0.60;;;18.30;99.90;;;;;;4997152;28;20471;-73
2023/08/02 10:14:31;;;;;;;0.70;0.70;;;18.30;99.90;;;;;;4991460;28;20579;-73
2023/08/02 10:17:02;;;;;;;0.50;0.50;;;18.30;99.90;;;;;;4997816;28;20572;-74
2023/08/02 10:19:33;;;;;;;1.27;0.80;;;18.40;99.90;;;;;;5008756;28;20924;-73
2023/08/02 10:22:00;;;;;;;0.50;0.50;;;18.40;99.90;;;;;;5014959;28;20537;-74
2023/08/02 10:24:27;;;;;;;1.13;0.73;;;18.40;99.90;;;;;;4990605;28;20524;-73
2023/08/02 10:26:58;;;;;;;0.50;0.50;;;18.40;99.90;;;;;;5008982;28;20469;-74
2023/08/02 10:29:26;;;;;;;0.80;0.67;;;18.50;99.90;;;;;;5006379;28;20550;-73
2023/08/02 10:31:51;;;;;;;1.23;0.60;;;18.50;99.90;;;;;;5008343;28;20508;-75
2023/08/02 10:34:35;;;;;;;0.60;0.60;;;18.50;99.90;;;;;;5006251;28;20478;-74
2023/08/02 10:37:02;;;;;;;0.67;0.67;;;18.60;99.90;;;;;;5009669;28;20302;-74
2023/08/02 10:39:47;;;;;;;1.27;0.60;;;18.60;99.90;;;;;;4990430;28;21307;-75
2023/08/02 10:42:20;;;;;;;0.50;0.50;;;18.60;99.90;;;;;;5005233;28;20490;-75
2023/08/02 10:44:55;;;;;;;0.50;0.43;;;18.60;99.90;;;;;;5009013;28;20475;-74
2023/08/02 10:47:27;;;;;;;0.90;0.60;;;18.70;99.90;;;;;;4990825;28;20580;-75
2023/08/02 10:49:54;;;;;;;0.50;0.50;;;18.70;99.90;;;;;;5009316;28;20564;-74
2023/08/02 10:52:35;;;;;;;4.20;0.90;;;18.70;99.90;;;;;;4992067;28;20482;-76
2023/08/02 10:55:04;;;;;;;0.80;0.80;;;18.70;99.90;;;;;;4998879;28;21094;-75
2023/08/02 10:57:30;;;;;;;0.67;0.60;;;18.80;99.90;;;;;;5013572;28;20997;-74
2023/08/02 10:59:56;;;;;;;0.90;0.50;;;18.80;99.90;;;;;;4998725;28;20475;-75
2023/08/02 11:02:25;;;;;;;0.60;0.60;;;18.80;99.90;;;;;;5011574;28;20236;-73
2023/08/02 11:04:51;;;;;;;0.50;0.43;;;18.80;99.90;;;;;;4998354;28;20491;-74
2023/08/02 11:07:19;;;;;;;0.60;0.60;;;18.90;99.90;;;;;;5011109;28;20475;-74
2023/08/02 11:09:46;;;;;;;0.80;0.60;;;18.90;99.90;;;;;;5016233;28;20463;-74
2023/08/02 11:12:16;;;;;;;0.60;0.60;;;18.90;99.90;;;;;;4991046;28;20477;-74
2023/08/02 11:14:44;;;;;;;0.77;0.60;;;18.90;99.90;;;;;;4995797;28;20465;-74
2023/08/02 11:17:11;;;;;;;1.10;1.00;;;19.00;99.90;;;;;;4996913;28;20470;-74
2023/08/02 11:19:37;;;;;;;0.80;0.80;;;19.00;99.90;;;;;;4996700;28;20517;-74
2023/08/02 11:22:03;;;;;;;0.90;0.80;;;19.00;99.90;;;;;;4995017;28;21235;-74
2023/08/02 11:24:44;;;;;;;1.53;0.97;;;19.10;99.90;;;;;;4990124;28;20259;-74
2023/08/02 11:27:21;;;;;;;0.97;0.97;;;19.10;99.90;;;;;;4995120;28;20305;-75
2023/08/02 11:29:59;;;;;;;1.13;1.00;;;19.10;99.90;;;;;;4994520;28;21028;-74
2023/08/02 11:32:26;;;;;;;1.10;0.90;;;19.10;99.90;;;;;;4991076;28;20498;-74
2023/08/02 11:34:53;;;;;;;1.60;1.00;;;19.10;99.90;;;;;;5011342;28;20474;-74
2023/08/02 11:37:19;;;;;;;1.30;1.20;;;19.20;99.90;;;;;;4990651;28;20486;-73
2023/08/02 11:39:57;;;;;;;1.20;1.07;;;19.20;99.90;;;;;;4996902;28;20900;-74
2023/08/02 11:42:24;;;;;;;1.40;1.20;;;19.20;99.90;;;;;;5007890;28;20486;-73
2023/08/02 11:44:50;;;;;;;1.33;1.23;;;19.20;99.90;;;;;;4995521;28;21072;-74
2023/08/02 11:47:16;;;;;;;4.60;1.50;;;19.20;99.90;;;;;;4991170;28;20911;-74
2023/08/02 11:49:53;;;;;;;3.00;1.83;;;19.30;99.90;;;;;;4996944;28;20477;-75
2023/08/02 11:52:25;;;;;;;3.03;1.60;;;19.30;99.90;;;;;;4974419;28;20279;-74
2023/08/02 11:54:52;;;;;;;1.53;1.43;;;19.40;99.90;;;;;;5013780;28;20543;-75
2023/08/02 11:57:18;;;;;;;1.67;1.20;;;19.40;99.90;;;;;;5006705;28;20947;-75
2023/08/02 11:59:46;;;;;;;1.27;1.10;;;19.40;99.90;;;;;;4995339;28;20475;-74
2023/08/02 12:02:28;;;;;;;1.00;0.90;;;19.40;99.90;;;;;;4980649;28;20486;-75
2023/08/02 12:04:54;;;;;;;1.70;1.60;;;19.40;99.90;;;;;;4994988;28;20594;-75
2023/08/02 12:07:30;;;;;;;1.00;1.00;;;19.50;99.90;;;;;;4991513;28;20475;-74
2023/08/02 12:09:56;;;;;;;2.10;1.50;;;19.50;99.90;;;;;;4995547;28;21158;-75
2023/08/02 12:12:28;;;;;;;1.13;1.03;;;19.50;99.90;;;;;;5007923;28;20470;-74
2023/08/02 12:14:54;;;;;;;1.70;1.13;;;19.60;99.90;;;;;;5013103;28;20228;-74
2023/08/02 12:17:21;;;;;;;1.70;1.60;;;19.60;99.90;;;;;;4990681;28;20470;-74
2023/08/02 12:19:48;;;;;;;1.40;1.30;;;19.60;99.90;;;;;;4993705;28;20227;-75
2023/08/02 12:22:15;;;;;;;2.40;1.10;;;19.60;99.90;;;;;;5007169;28;20479;-74
2023/08/02 12:24:41;;;;;;;1.70;1.43;;;19.70;99.90;;;;;;5010686;28;20496;-74
2023/08/02 12:27:16;;;;;;;1.30;1.20;;;19.70;99.90;;;;;;5011745;28;21033;-75
2023/08/02 12:29:43;;;;;;;2.60;1.37;;;19.80;99.90;;;;;;4994227;28;20310;-74
2023/08/02 12:32:10;;;;;;;1.10;1.00;;;19.80;99.90;;;;;;4991363;28;20463;-74
2023/08/02 12:34:36;;;;;;;1.37;1.10;;;20.00;99.90;;;;;;5009762;28;20482;-74
2023/08/02 12:37:03;;;;;;;1.40;1.27;;;20.10;99.90;;;;;;4977507;28;20487;-74
2023/08/02 12:39:29;;;;;;;1.30;1.20;;;20.10;99.90;;;;;;4990754;28;21708;-74
2023/08/02 12:41:54;;;;;;;1.27;1.17;;;20.10;99.90;;;;;;5011037;28;20601;-74
2023/08/02 12:44:20;;;;;;;1.27;1.17;;;20.10;99.90;;;;;;4988360;28;20243;-74
2023/08/02 12:46:45;;;;;;;1.43;1.33;;;20.20;99.90;;;;;;4994275;28;20231;-75
2023/08/02 12:49:11;;;;;;;1.60;1.50;;;20.20;99.90;;;;;;5006433;28;20311;-74